Time;durP1;ratioP1;P1;durP2;ratioP2;P2;SDS_P1;SDS_P2;PMS_P1;PMS_P2;Temp;Humidity;BMP_temperature;BMP_pressure;BME280_temperature;BME280_humidity;BME280_pressure;Samples;Min_cycle;Max_cycle;Signal;HPM_P1;HPM_P2
2022/05/01 00:00:16;;;;;;;15.70;13.32;;;;;;;7.94;100.00;102423.91;5298573;28;20517;-75
2022/05/01 00:02:48;;;;;;;14.68;11.93;;;;;;;7.94;100.00;102417.69;5297130;28;20100;-75
2022/05/01 00:05:19;;;;;;;14.73;12.32;;;;;;;7.91;100.00;102421.41;5299806;28;20056;-75
2022/05/01 00:07:50;;;;;;;16.38;13.32;;;;;;;7.93;100.00;102421.31;5299030;28;20416;-75
2022/05/01 00:10:22;;;;;;;16.52;12.55;;;;;;;7.90;100.00;102422.34;5295403;28;20036;-76
2022/05/01 00:12:53;;;;;;;12.00;10.10;;;;;;;7.99;100.00;102430.75;5300067;28;20394;-75
2022/05/01 00:15:25;;;;;;;11.77;9.68;;;;;;;8.05;100.00;102423.28;5301933;27;20043;-75
2022/05/01 00:17:57;;;;;;;13.27;11.18;;;;;;;7.97;100.00;102412.22;5301883;28;20020;-75
2022/05/01 00:20:28;;;;;;;12.07;10.57;;;;;;;8.02;100.00;102423.44;5301052;27;20562;-75
2022/05/01 00:23:00;;;;;;;10.55;9.32;;;;;;;8.16;100.00;102427.13;5303506;28;20424;-75
2022/05/01 00:25:36;;;;;;;9.65;8.65;;;;;;;8.21;100.00;102425.06;5303836;28;20053;-75
2022/05/01 00:28:14;;;;;;;12.48;11.25;;;;;;;8.12;100.00;102414.00;5303101;28;20480;-75
2022/05/01 00:30:46;;;;;;;11.07;9.98;;;;;;;8.16;100.00;102422.66;5303544;28;20043;-75
2022/05/01 00:39:02;;;;;;;13.65;12.25;;;;;;;8.12;100.00;102419.31;5305216;28;20045;-76
2022/05/01 00:41:37;;;;;;;14.02;12.68;;;;;;;8.04;100.00;102418.06;5303231;27;20094;-76
2022/05/01 00:44:14;;;;;;;12.43;11.18;;;;;;;8.06;100.00;102416.16;5299080;28;20127;-76
2022/05/01 00:46:48;;;;;;;15.27;11.85;;;;;;;8.03;100.00;102416.31;5302089;28;20056;-76
2022/05/01 00:49:22;;;;;;;19.17;12.68;;;;;;;8.02;100.00;102411.97;5306607;28;20071;-76
2022/05/01 00:51:57;;;;;;;18.40;13.05;;;;;;;8.00;100.00;102411.22;5304559;28;20386;-76
2022/05/01 00:54:29;;;;;;;14.20;12.70;;;;;;;7.95;100.00;102414.13;5308697;27;20017;-76
2022/05/01 00:57:03;;;;;;;15.95;14.02;;;;;;;7.95;100.00;102414.13;5299442;28;20035;-76
2022/05/01 00:59:36;;;;;;;17.60;12.82;;;;;;;7.92;100.00;102407.19;5301096;28;20036;-76
2022/05/01 01:02:08;;;;;;;13.93;12.43;;;;;;;7.91;100.00;102401.97;5299853;28;20075;-76
2022/05/01 01:04:39;;;;;;;16.17;12.18;;;;;;;7.86;100.00;102393.38;5303070;28;20065;-76
2022/05/01 01:07:10;;;;;;;15.55;11.98;;;;;;;7.86;100.00;102404.00;5304730;27;20036;-77
2022/05/01 01:09:42;;;;;;;15.30;12.90;;;;;;;7.73;100.00;102398.50;5301146;28;20422;-75
2022/05/01 01:12:54;;;;;;;15.15;12.63;;;;;;;7.81;100.00;102409.56;5301466;27;21712;-76
2022/05/01 01:15:31;;;;;;;17.77;12.48;;;;;;;7.74;100.00;102402.91;5299214;28;20504;-75
2022/05/01 01:18:03;;;;;;;15.65;12.38;;;;;;;7.81;100.00;102401.59;5304107;27;20160;-75
2022/05/01 01:20:36;;;;;;;15.73;12.80;;;;;;;7.79;100.00;102403.50;5299223;28;20115;-75
2022/05/01 01:23:08;;;;;;;14.88;13.32;;;;;;;7.78;100.00;102401.78;5300959;27;20036;-75
2022/05/01 01:25:40;;;;;;;12.82;10.55;;;;;;;7.86;100.00;102404.00;5302783;28;20036;-75
2022/05/01 01:28:11;;;;;;;16.27;12.50;;;;;;;7.78;100.00;102408.91;5301867;27;20093;-75
2022/05/01 01:33:34;;;;;;;17.77;14.25;;;;;;;7.71;100.00;102403.94;5295280;28;20108;-75
2022/05/01 01:36:06;;;;;;;16.70;13.10;;;;;;;7.68;100.00;102395.25;5308151;27;20118;-75
2022/05/01 01:38:39;;;;;;;12.82;11.05;;;;;;;7.74;100.00;102402.91;5295324;28;20489;-75
2022/05/01 01:41:13;;;;;;;16.52;13.18;;;;;;;7.61;100.00;102402.72;5294822;28;21444;-76
2022/05/01 01:43:45;;;;;;;14.27;12.32;;;;;;;7.67;100.00;102405.03;5298756;28;20032;-75
2022/05/01 01:46:17;;;;;;;20.02;15.40;;;;;;;7.56;100.00;102400.31;5308464;27;20052;-75
2022/05/01 01:48:49;;;;;;;18.08;13.95;;;;;;;7.54;100.00;102391.59;5302622;28;20036;-75
2022/05/01 01:51:20;;;;;;;14.00;12.55;;;;;;;7.56;100.00;102392.34;5300422;27;20029;-76
2022/05/01 01:53:52;;;;;;;17.60;14.32;;;;;;;7.44;100.00;102395.69;5303906;27;20035;-76
2022/05/01 01:56:24;;;;;;;16.20;13.13;;;;;;;7.50;100.00;102392.72;5301214;27;20481;-75
2022/05/01 01:58:55;;;;;;;16.58;13.95;;;;;;;7.42;100.00;102394.91;5298012;28;20500;-76
2022/05/01 02:01:26;;;;;;;16.58;13.85;;;;;;;7.42;100.00;102397.56;5297288;28;20238;-75
2022/05/01 02:03:57;;;;;;;17.92;15.63;;;;;;;7.39;100.00;102400.38;5305139;28;20441;-75
2022/05/01 02:06:29;;;;;;;19.80;14.60;;;;;;;7.39;100.00;102397.72;5301339;28;20482;-76
2022/05/01 02:09:06;;;;;;;16.70;14.98;;;;;;;7.37;100.00;102400.47;5305183;28;20101;-76
2022/05/01 02:11:38;;;;;;;15.77;13.63;;;;;;;7.29;100.00;102401.81;5299725;27;20388;-76
2022/05/01 02:14:10;;;;;;;17.42;14.35;;;;;;;7.22;100.00;102395.97;5302546;28;20082;-75
2022/05/01 02:16:41;;;;;;;16.95;14.95;;;;;;;7.26;100.00;102392.25;5300532;28;20031;-75
2022/05/01 02:19:13;;;;;;;16.52;14.82;;;;;;;7.27;100.00;102390.44;5298723;28;20036;-76
2022/05/01 02:21:44;;;;;;;18.35;15.35;;;;;;;7.17;100.00;102395.38;5305138;28;20458;-75
2022/05/01 02:24:15;;;;;;;16.67;14.90;;;;;;;7.18;100.00;102389.13;5299011;28;20036;-75
2022/05/01 02:26:47;;;;;;;14.55;12.93;;;;;;;7.18;100.00;102383.84;5303239;28;20052;-76
2022/05/01 02:29:19;;;;;;;17.70;15.25;;;;;;;7.14;100.00;102382.28;5298433;27;20036;-76
2022/05/01 02:31:53;;;;;;;21.15;16.52;;;;;;;7.14;100.00;102384.94;5299914;28;20023;-77
2022/05/01 02:34:28;;;;;;;17.92;15.98;;;;;;;7.09;100.00;102377.22;5302744;28;20039;-77
2022/05/01 02:37:00;;;;;;;20.00;15.70;;;;;;;7.05;100.00;102381.00;5304738;28;20115;-76
2022/05/01 02:39:31;;;;;;;21.48;16.15;;;;;;;7.06;100.00;102371.22;5300909;28;20433;-77
2022/05/01 02:42:03;;;;;;;17.63;14.18;;;;;;;7.03;100.00;102368.72;5304101;28;20779;-75
2022/05/01 02:44:34;;;;;;;15.90;13.50;;;;;;;7.05;100.00;102374.81;5296212;28;20032;-75
2022/05/01 02:47:06;;;;;;;17.73;14.65;;;;;;;6.97;100.00;102365.47;5302715;28;20049;-75
2022/05/01 02:49:40;;;;;;;18.92;14.65;;;;;;;7.00;100.00;102365.31;5298429;27;20386;-75
2022/05/01 02:52:11;;;;;;;18.17;16.08;;;;;;;6.95;100.00;102366.50;5305593;27;20031;-75
2022/05/01 02:54:42;;;;;;;18.23;15.63;;;;;;;6.90;100.00;102365.88;5301929;28;20036;-75
2022/05/01 02:57:14;;;;;;;17.27;15.48;;;;;;;6.91;100.00;102365.81;5305502;28;20040;-75
2022/05/01 02:59:45;;;;;;;15.13;13.23;;;;;;;6.90;100.00;102371.19;5297032;28;20048;-75
2022/05/01 03:02:17;;;;;;;17.38;15.48;;;;;;;6.82;100.00;102364.50;5303833;27;20024;-75
2022/05/01 03:04:48;;;;;;;19.23;16.95;;;;;;;6.81;100.00;102367.22;5303618;28;20371;-75
2022/05/01 03:07:19;;;;;;;22.10;16.67;;;;;;;6.74;100.00;102360.53;5297420;28;20055;-75
2022/05/01 03:09:52;;;;;;;18.15;15.55;;;;;;;6.70;100.00;102358.97;5302590;28;20072;-75
2022/05/01 03:12:24;;;;;;;17.83;15.80;;;;;;;6.70;100.00;102366.94;5298943;28;20058;-76
2022/05/01 03:14:57;;;;;;;16.17;13.95;;;;;;;6.70;100.00;102356.34;5298676;27;20033;-76
2022/05/01 03:22:10;;;;;;;16.17;14.05;;;;;;;6.63;100.00;102363.75;5295401;28;20209;-75
2022/05/01 03:23:10;;;;;;;17.85;13.80;;;;;;;6.52;100.00;102361.66;5299104;28;20033;-75
2022/05/01 03:25:41;;;;;;;17.17;14.13;;;;;;;6.50;100.00;102352.91;5303944;28;20034;-76
2022/05/01 03:28:13;;;;;;;17.17;14.70;;;;;;;6.48;100.00;102356.56;5302440;28;20020;-75
2022/05/01 03:30:44;;;;;;;16.75;14.65;;;;;;;6.54;100.00;102351.81;5300012;27;20078;-75
2022/05/01 03:33:21;;;;;;;17.50;13.95;;;;;;;6.53;100.00;102358.03;5301048;28;20025;-75
2022/05/01 03:35:53;;;;;;;14.07;12.68;;;;;;;6.47;100.00;102347.78;5300701;27;20028;-75
2022/05/01 03:38:24;;;;;;;15.77;14.15;;;;;;;6.39;100.00;102345.50;5296707;28;20036;-75
2022/05/01 03:40:56;;;;;;;18.15;15.77;;;;;;;6.25;100.00;102340.91;5298685;28;20766;-75
2022/05/01 03:43:27;;;;;;;20.33;17.98;;;;;;;6.03;100.00;102348.19;5300891;28;20525;-76
2022/05/01 03:45:59;;;;;;;23.92;17.48;;;;;;;6.08;100.00;102346.19;5302786;27;20032;-75
2022/05/01 03:48:32;;;;;;;21.35;18.30;;;;;;;5.92;100.00;102342.56;5297618;28;20043;-76
2022/05/01 03:51:03;;;;;;;15.15;13.55;;;;;;;5.87;100.00;102348.06;5299492;28;20346;-75
2022/05/01 03:53:34;;;;;;;15.65;13.82;;;;;;;5.85;100.00;102347.28;5297313;28;20099;-75
2022/05/01 03:56:06;;;;;;;24.02;19.67;;;;;;;5.74;100.00;102352.25;5296160;28;20028;-75
2022/05/01 03:58:38;;;;;;;20.52;16.08;;;;;;;5.79;100.00;102352.91;5296647;28;20455;-75
2022/05/01 04:01:09;;;;;;;21.85;17.80;;;;;;;5.79;100.00;102350.25;5293183;28;20035;-75
2022/05/01 04:03:40;;;;;;;18.75;14.98;;;;;;;5.72;100.00;102348.84;5298141;28;20029;-75
2022/05/01 04:06:11;;;;;;;27.05;21.65;;;;;;;5.54;100.00;102348.78;5302811;27;20040;-75
2022/05/01 04:08:43;;;;;;;17.52;15.73;;;;;;;5.50;100.00;102352.50;5310135;28;20109;-75
2022/05/01 04:11:15;;;;;;;19.33;15.50;;;;;;;5.60;100.00;102353.78;5297160;28;20024;-75
2022/05/01 04:13:48;;;;;;;23.73;19.65;;;;;;;5.49;100.00;102358.72;5296868;28;20386;-75
2022/05/01 04:16:19;;;;;;;22.33;17.80;;;;;;;5.52;100.00;102355.91;5296089;28;20031;-75
2022/05/01 04:18:51;;;;;;;19.85;16.52;;;;;;;5.38;100.00;102350.41;5298291;28;20369;-75
2022/05/01 04:21:23;;;;;;;31.67;24.35;;;;;;;5.15;100.00;102354.97;5293876;28;20131;-75
2022/05/01 04:23:55;;;;;;;29.25;24.00;;;;;;;5.03;100.00;102358.19;5296293;28;20035;-75
2022/05/01 04:26:26;;;;;;;26.05;22.35;;;;;;;4.92;100.00;102350.75;5295374;28;20040;-75
2022/05/01 04:31:47;;;;;;;28.80;22.92;;;;;;;4.79;100.00;102353.09;5298469;28;20036;-75
2022/05/01 04:34:18;;;;;;;23.55;17.77;;;;;;;4.98;100.00;102357.53;5295916;28;20031;-75
2022/05/01 04:36:50;;;;;;;23.52;18.95;;;;;;;4.85;100.00;102351.94;5307333;28;20412;-75
2022/05/01 04:39:21;;;;;;;29.75;23.25;;;;;;;4.74;100.00;102353.28;5296977;28;20458;-75
2022/05/01 04:41:53;;;;;;;29.83;23.10;;;;;;;4.69;100.00;102351.78;5291207;28;20386;-75
2022/05/01 04:44:25;;;;;;;28.20;21.95;;;;;;;4.61;100.00;102348.59;5296692;28;20021;-75
2022/05/01 04:46:56;;;;;;;29.55;21.58;;;;;;;4.54;100.00;102355.94;5298628;28;20033;-75
2022/05/01 04:49:29;;;;;;;34.95;24.17;;;;;;;4.55;100.00;102352.38;5293125;28;20024;-75
2022/05/01 04:52:00;;;;;;;34.03;25.65;;;;;;;4.56;100.00;102351.47;5295457;28;20020;-75
2022/05/01 04:54:32;;;;;;;35.15;24.75;;;;;;;4.56;100.00;102351.47;5297208;28;20437;-75
2022/05/01 04:57:07;;;;;;;28.00;23.52;;;;;;;4.42;100.00;102351.16;5297803;28;20086;-75
2022/05/01 04:59:40;;;;;;;33.72;25.15;;;;;;;4.60;100.00;102362.75;5297760;28;20044;-75
2022/05/01 05:02:12;;;;;;;25.08;21.05;;;;;;;4.71;100.00;102363.13;5303516;27;20667;-75
2022/05/01 05:04:43;;;;;;;38.30;27.98;;;;;;;4.66;100.00;102358.06;5304306;28;20123;-75
2022/05/01 05:07:14;;;;;;;34.47;26.27;;;;;;;4.85;100.00;102365.16;5303799;27;20025;-75
2022/05/01 05:09:55;;;;;;;36.00;27.95;;;;;;;4.90;100.00;102364.03;5300758;28;20021;-75
2022/05/01 05:12:26;;;;;;;37.30;25.33;;;;;;;5.10;100.00;102373.72;5297647;28;20024;-75
2022/05/01 05:15:00;;;;;;;35.20;24.55;;;;;;;5.19;100.00;102376.88;5309354;28;20105;-75
2022/05/01 05:17:32;;;;;;;35.63;28.60;;;;;;;5.21;100.00;102373.25;5296916;28;20321;-75
2022/05/01 05:20:04;;;;;;;38.05;27.33;;;;;;;5.22;100.00;102374.09;5303440;28;21151;-75
2022/05/01 05:22:36;;;;;;;33.17;23.88;;;;;;;5.32;100.00;102370.09;5304390;28;20043;-75
2022/05/01 05:25:10;;;;;;;38.13;30.13;;;;;;;5.37;100.00;102381.31;5299387;28;20036;-75
2022/05/01 05:27:41;;;;;;;30.77;23.50;;;;;;;5.49;100.00;102372.81;5296416;28;20516;-75
2022/05/01 05:30:12;;;;;;;39.22;28.50;;;;;;;5.62;100.00;102377.53;5294343;28;20032;-76
2022/05/01 05:32:45;;;;;;;42.25;31.15;;;;;;;5.66;100.00;102379.09;5297164;28;20045;-76
2022/05/01 05:35:16;;;;;;;38.65;28.13;;;;;;;5.75;100.00;102380.44;5295093;28;20029;-76
2022/05/01 05:37:47;;;;;;;28.02;22.50;;;;;;;5.96;100.00;102389.16;5302718;27;20055;-76
2022/05/01 05:40:19;;;;;;;36.28;27.10;;;;;;;6.03;100.00;102385.28;5305470;28;20450;-76
2022/05/01 05:42:50;;;;;;;33.83;27.13;;;;;;;6.13;100.00;102393.66;5297807;28;20025;-76
2022/05/01 05:45:22;;;;;;;32.95;28.20;;;;;;;6.20;100.00;102387.97;5299959;28;20445;-76
2022/05/01 05:47:53;;;;;;;32.85;27.75;;;;;;;6.29;100.00;102388.44;5301500;28;20442;-76
2022/05/01 05:50:24;;;;;;;33.20;26.67;;;;;;;6.49;100.00;102385.66;5299588;28;20081;-76
2022/05/01 05:52:56;;;;;;;24.67;22.08;;;;;;;6.66;100.00;102392.72;5298540;28;20067;-76
2022/05/01 05:55:27;;;;;;;24.90;20.75;;;;;;;6.86;100.00;102394.34;5296046;28;20066;-76
2022/05/01 05:58:00;;;;;;;35.10;26.80;;;;;;;7.02;100.00;102390.91;5298373;28;20093;-76
2022/05/01 06:00:31;;;;;;;27.10;23.10;;;;;;;7.22;100.00;102392.47;5301568;28;20458;-76
2022/05/01 06:03:02;;;;;;;25.80;20.92;;;;;;;7.51;100.00;102399.72;5297659;28;20119;-76
2022/05/01 06:05:34;;;;;;;21.30;18.70;;;;;;;7.67;100.00;102393.56;5300217;28;20029;-76
2022/05/01 06:08:05;;;;;;;21.60;19.17;;;;;;;7.94;100.00;102391.13;5291796;28;20041;-76
2022/05/01 06:10:38;;;;;;;27.65;24.13;;;;;;;8.04;100.00;102386.16;5290403;28;20105;-76
2022/05/01 06:13:09;;;;;;;26.83;23.73;;;;;;;8.26;100.00;102386.63;5291011;28;20020;-76
2022/05/01 06:15:43;;;;;;;25.65;22.90;;;;;;;8.49;100.00;102392.44;5292203;28;20033;-76
2022/05/01 06:18:15;;;;;;;25.88;22.38;;;;;;;8.49;100.00;102387.97;5296311;27;20024;-76
2022/05/01 06:20:47;;;;;;;28.40;23.30;;;;;;;8.55;100.00;102380.56;5293142;28;20377;-76
2022/05/01 06:23:19;;;;;;;23.33;20.35;;;;;;;8.73;100.00;102390.13;5296808;28;20118;-75
2022/05/01 06:25:51;;;;;;;25.20;21.35;;;;;;;8.86;100.00;102385.75;5288794;28;20062;-75
2022/05/01 06:28:22;;;;;;;26.80;22.63;;;;;;;8.95;100.00;102384.34;5293406;28;20976;-76
2022/05/01 06:30:55;;;;;;;28.13;22.70;;;;;;;9.28;100.00;102389.38;5297051;28;20064;-76
2022/05/01 06:33:29;;;;;;;23.35;20.83;;;;;;;9.77;100.00;102393.38;5300107;28;20121;-76
2022/05/01 06:36:01;;;;;;;22.35;20.02;;;;;;;10.18;100.00;102388.94;5298517;28;20024;-76
2022/05/01 06:38:33;;;;;;;21.55;19.35;;;;;;;10.86;100.00;102387.06;5291901;27;20028;-76
2022/05/01 06:41:05;;;;;;;21.90;18.80;;;;;;;11.46;100.00;102380.16;5325256;27;20478;-74
2022/05/01 06:43:36;;;;;;;20.05;17.23;;;;;;;11.76;100.00;102389.59;5307035;28;20031;-76
2022/05/01 06:46:07;;;;;;;19.65;17.67;;;;;;;12.41;100.00;102386.53;5308762;28;20103;-75
2022/05/01 06:48:39;;;;;;;20.50;18.45;;;;;;;12.75;100.00;102383.91;5312755;27;20024;-75
2022/05/01 06:51:10;;;;;;;18.98;17.08;;;;;;;13.45;100.00;102395.44;5309923;28;20031;-75
2022/05/01 06:53:41;;;;;;;20.17;16.63;;;;;;;14.09;100.00;102385.75;5304542;28;20542;-75
2022/05/01 06:56:12;;;;;;;19.25;15.18;;;;;;;14.71;100.00;102390.34;5294572;28;20033;-75
2022/05/01 06:58:44;;;;;;;20.13;16.80;;;;;;;15.10;100.00;102382.50;5297910;27;20072;-75
2022/05/01 07:01:15;;;;;;;16.83;15.02;;;;;;;15.61;100.00;102386.06;5301742;28;20022;-76
2022/05/01 07:03:47;;;;;;;16.30;14.70;;;;;;;15.83;100.00;102387.69;5298451;28;20109;-76
2022/05/01 07:06:19;;;;;;;16.40;14.80;;;;;;;15.77;100.00;102385.56;5302474;28;20107;-75
2022/05/01 07:08:50;;;;;;;16.17;14.57;;;;;;;15.83;100.00;102384.13;5304459;28;20124;-75
2022/05/01 07:11:21;;;;;;;17.00;15.27;;;;;;;15.91;100.00;102386.16;5307780;27;20020;-76
2022/05/01 07:13:53;;;;;;;17.75;14.85;;;;;;;16.19;100.00;102390.69;5301596;27;20386;-75
2022/05/01 07:16:24;;;;;;;16.90;15.15;;;;;;;16.57;100.00;102377.34;5298950;28;34588;-76
2022/05/01 07:18:55;;;;;;;16.30;14.57;;;;;;;16.41;100.00;102386.03;5297733;28;20028;-76
2022/05/01 07:21:26;;;;;;;16.17;14.57;;;;;;;17.03;100.00;102388.31;5311404;28;20020;-76
2022/05/01 07:23:58;;;;;;;22.55;15.10;;;;;;;16.96;100.00;102394.28;5300894;27;20127;-76
2022/05/01 07:26:33;;;;;;;15.95;14.25;;;;;;;17.23;100.00;102387.22;5303282;28;20059;-76
2022/05/01 07:29:05;;;;;;;15.55;13.95;;;;;;;17.17;100.00;102388.66;5297858;27;20533;-76
2022/05/01 07:31:36;;;;;;;18.05;14.88;;;;;;;17.12;100.00;102392.81;5298267;27;20096;-76
2022/05/01 07:34:09;;;;;;;18.65;15.00;;;;;;;16.90;100.00;102391.31;5294272;28;20024;-76
2022/05/01 07:36:40;;;;;;;17.92;14.93;;;;;;;16.23;100.00;102391.25;5295589;28;20032;-76
2022/05/01 07:39:12;;;;;;;18.45;14.85;;;;;;;16.55;100.00;102393.66;5293284;28;20336;-77
2022/05/01 07:41:44;;;;;;;17.73;14.90;;;;;;;16.35;100.00;102392.81;5301235;28;20470;-76
2022/05/01 07:44:15;;;;;;;17.10;14.30;;;;;;;16.31;100.00;102388.69;5294944;28;20359;-76
2022/05/01 07:46:46;;;;;;;15.63;14.02;;;;;;;16.17;100.00;102391.84;5285601;28;20024;-77
2022/05/01 07:49:18;;;;;;;16.08;13.60;;;;;;;16.29;100.00;102396.09;5291719;28;20029;-76
2022/05/01 07:51:49;;;;;;;12.77;11.48;;;;;;;16.38;100.00;102389.81;5295553;28;20028;-76
2022/05/01 07:54:21;;;;;;;13.35;11.75;;;;;;;17.10;100.00;102390.25;5295372;28;20029;-76
2022/05/01 07:56:52;;;;;;;19.23;13.77;;;;;;;18.08;100.00;102389.72;5297942;28;20024;-77
2022/05/01 07:59:23;;;;;;;15.63;13.15;;;;;;;17.97;96.52;102390.81;5296680;28;20033;-76
2022/05/01 08:01:55;;;;;;;14.68;10.85;;;;;;;18.00;93.06;102381.53;5298060;28;20430;-77
2022/05/01 08:04:29;;;;;;;14.63;13.13;;;;;;;18.61;98.90;102385.25;5292827;28;20376;-76
2022/05/01 08:07:02;;;;;;;13.57;12.18;;;;;;;19.69;89.82;102382.94;5298909;28;20063;-77
2022/05/01 08:09:33;;;;;;;11.65;9.93;;;;;;;20.90;75.09;102381.47;5299689;28;20056;-77
2022/05/01 08:12:05;;;;;;;14.93;10.40;;;;;;;21.54;60.33;102378.69;5299291;28;20417;-77
2022/05/01 08:14:40;;;;;;;15.13;10.25;;;;;;;22.53;52.09;102380.69;5289025;28;20052;-77
2022/05/01 08:17:11;;;;;;;10.73;8.57;;;;;;;23.57;46.99;102373.34;5302092;27;20406;-77
2022/05/01 08:22:32;;;;;;;7.50;6.55;;;;;;;23.77;41.00;102376.31;5285439;28;20256;-78
2022/05/01 08:25:04;;;;;;;11.27;7.80;;;;;;;23.87;39.95;102375.19;5300468;28;20031;-77
2022/05/01 08:27:38;;;;;;;8.55;6.00;;;;;;;24.87;36.80;102371.38;5292800;28;20048;-78
2022/05/01 08:30:10;;;;;;;8.68;6.40;;;;;;;25.40;36.28;102362.66;5301336;28;20039;-76
2022/05/01 08:32:41;;;;;;;10.23;6.88;;;;;;;25.47;35.02;102362.66;5292408;28;20025;-76
2022/05/01 08:35:13;;;;;;;7.15;5.90;;;;;;;27.55;34.10;102366.94;5299282;28;20082;-75
2022/05/01 08:37:45;;;;;;;9.80;6.40;;;;;;;27.81;31.67;102359.63;5297716;28;20031;-75
2022/05/01 08:40:16;;;;;;;7.38;5.32;;;;;;;27.94;28.42;102369.66;5295685;28;20053;-76
2022/05/01 08:42:50;;;;;;;6.22;4.72;;;;;;;28.51;28.78;102361.38;5296736;28;20125;-76
2022/05/01 08:45:26;;;;;;;4.80;4.40;;;;;;;29.54;26.97;102368.88;5299611;28;20157;-77
2022/05/01 08:48:07;;;;;;;7.00;5.35;;;;;;;31.21;27.30;102360.50;5300102;28;20058;-75
2022/05/01 08:50:40;;;;;;;5.40;3.80;;;;;;;31.54;23.27;102358.09;5303071;28;20064;-77
2022/05/01 08:53:13;;;;;;;5.68;4.43;;;;;;;31.56;22.33;102367.00;5303027;28;20051;-77
2022/05/01 08:55:47;;;;;;;4.18;3.25;;;;;;;29.78;21.92;102360.72;5296246;28;20101;-76
2022/05/01 08:58:18;;;;;;;4.32;3.75;;;;;;;29.22;24.25;102354.50;5297037;28;20518;-76
2022/05/01 09:00:51;;;;;;;6.63;4.10;;;;;;;29.16;24.20;102360.94;5297543;28;20033;-76
2022/05/01 09:03:23;;;;;;;5.82;4.53;;;;;;;27.97;24.53;102358.25;5297012;28;20035;-76
2022/05/01 09:05:54;;;;;;;6.85;4.63;;;;;;;26.57;25.77;102359.63;5298306;28;20016;-76
2022/05/01 09:08:26;;;;;;;7.57;5.35;;;;;;;25.18;28.60;102353.72;5295757;28;20108;-75
2022/05/01 09:12:49;;;;;;;5.97;4.68;;;;;;;24.98;28.83;102350.91;5293592;28;20035;-76
2022/05/01 09:13:52;;;;;;;7.18;5.00;;;;;;;23.97;30.47;102354.75;5297124;28;20037;-78
2022/05/01 09:16:25;;;;;;;10.77;5.18;;;;;;;22.66;30.27;102350.97;5296041;28;20028;-75
2022/05/01 09:18:56;;;;;;;5.30;4.65;;;;;;;21.98;31.29;102358.19;5302476;28;20035;-74
2022/05/01 09:21:47;;;;;;;7.63;4.35;;;;;;;22.77;32.30;102352.41;5302450;28;20020;-74
2022/05/01 09:24:28;;;;;;;8.70;4.35;;;;;;;21.75;34.22;102356.31;5296125;28;20375;-75
2022/05/01 09:27:00;;;;;;;5.38;4.82;;;;;;;21.83;32.67;102350.00;5288075;28;20106;-74
2022/05/01 09:29:32;;;;;;;6.05;4.78;;;;;;;21.40;32.32;102360.41;5294251;28;20104;-75
2022/05/01 09:32:04;;;;;;;10.60;4.50;;;;;;;21.11;33.18;102357.31;5304207;28;20031;-75
2022/05/01 09:34:35;;;;;;;5.93;4.85;;;;;;;21.31;33.40;102352.28;5301887;28;20283;-75
2022/05/01 09:37:18;;;;;;;6.35;4.53;;;;;;;22.76;32.89;102358.88;5298904;27;20043;-76
2022/05/01 09:39:50;;;;;;;8.90;5.05;;;;;;;23.10;30.68;102362.94;5291433;28;20032;-76
2022/05/01 09:42:24;;;;;;;7.03;4.67;;;;;;;22.94;30.51;102353.06;5301085;28;20111;-77
2022/05/01 09:45:12;;;;;;;7.72;4.80;;;;;;;25.75;29.41;102358.94;5299666;28;20323;-80
2022/05/01 09:47:45;;;;;;;6.18;4.60;;;;;;;26.38;26.21;102353.13;5286398;28;20394;-78
2022/05/01 09:50:16;;;;;;;5.90;4.20;;;;;;;28.81;24.83;102353.28;5296740;28;20028;-77
2022/05/01 09:52:58;;;;;;;6.47;4.25;;;;;;;31.18;22.95;102355.47;5299484;28;20456;-75
2022/05/01 09:55:30;;;;;;;4.57;3.80;;;;;;;31.42;20.54;102356.22;5309719;28;20037;-76
2022/05/01 09:58:11;;;;;;;5.55;4.28;;;;;;;32.37;20.08;102352.91;5302091;28;20314;-75
2022/05/01 10:00:45;;;;;;;4.65;4.25;;;;;;;33.93;18.57;102360.06;5301511;28;20086;-75
2022/05/01 10:03:31;;;;;;;5.57;4.28;;;;;;;33.00;19.53;102349.94;5302448;28;20024;-76
2022/05/01 10:06:04;;;;;;;4.90;4.33;;;;;;;30.07;19.98;102341.66;5295380;28;20033;-76
2022/05/01 10:08:38;;;;;;;6.97;4.60;;;;;;;29.47;20.42;102348.03;5311731;28;20051;-78
2022/05/01 10:11:14;;;;;;;5.38;4.55;;;;;;;29.96;20.35;102344.16;5289138;27;20508;-77
2022/05/01 10:13:46;;;;;;;4.45;4.03;;;;;;;29.39;21.40;102341.78;5288048;28;20101;-77
2022/05/01 10:16:17;;;;;;;6.10;4.13;;;;;;;29.53;22.13;102336.94;5288561;28;20155;-77
2022/05/01 10:18:49;;;;;;;6.13;4.50;;;;;;;30.43;21.84;102337.03;5299662;28;20569;-76
2022/05/01 10:21:20;;;;;;;5.05;3.95;;;;;;;30.19;21.11;102342.50;5301114;28;20487;-76
2022/05/01 10:23:52;;;;;;;6.15;3.78;;;;;;;30.14;21.12;102332.22;5301728;28;20360;-76
2022/05/01 10:26:28;;;;;;;5.18;4.25;;;;;;;29.87;20.76;102337.31;5302130;28;20041;-76
2022/05/01 10:29:34;;;;;;;5.55;4.35;;;;;;;29.33;21.45;102340.00;5301850;28;20032;-76
2022/05/01 10:32:32;;;;;;;8.48;4.82;;;;;;;28.74;21.81;102325.06;5301551;28;20021;-76
2022/05/01 10:35:12;;;;;;;4.93;4.43;;;;;;;26.54;23.54;102325.34;5289286;28;20439;-76
2022/05/01 10:38:06;;;;;;;5.45;4.40;;;;;;;25.91;24.71;102328.50;5298462;28;20587;-76
2022/05/01 10:40:46;;;;;;;5.45;4.75;;;;;;;24.92;25.17;102321.66;5303077;28;20040;-76
2022/05/01 10:43:27;;;;;;;6.63;4.72;;;;;;;24.76;25.91;102313.84;5303244;28;20040;-76
2022/05/01 10:46:00;;;;;;;4.93;4.30;;;;;;;24.69;25.77;102306.44;5305352;28;20025;-76
2022/05/01 10:48:39;;;;;;;5.65;4.65;;;;;;;24.55;26.10;102314.75;5305192;28;20064;-76
2022/05/01 10:51:38;;;;;;;5.07;4.68;;;;;;;23.89;27.01;102311.25;5306146;28;20032;-76
2022/05/01 10:54:09;;;;;;;6.57;5.07;;;;;;;22.90;27.60;102314.50;5305334;28;20049;-76
2022/05/01 10:56:51;;;;;;;6.00;4.50;;;;;;;23.48;28.33;102308.34;5305474;28;20484;-76
2022/05/01 10:59:28;;;;;;;4.70;4.30;;;;;;;22.97;28.31;102303.72;5304611;28;20036;-76
2022/05/01 11:02:04;;;;;;;6.18;4.90;;;;;;;23.16;27.51;102302.28;5303908;28;42210;-76
2022/05/01 11:04:40;;;;;;;7.75;5.15;;;;;;;23.12;27.21;102296.38;5305009;28;20029;-76
2022/05/01 11:07:14;;;;;;;5.10;4.60;;;;;;;21.92;29.71;102294.59;5305403;28;20019;-76
2022/05/01 11:09:47;;;;;;;5.70;5.15;;;;;;;21.30;29.40;102301.78;5305615;28;20028;-76
2022/05/01 11:12:21;;;;;;;8.55;5.22;;;;;;;20.66;30.04;102293.72;5303448;28;20021;-76
2022/05/01 11:14:57;;;;;;;6.00;5.40;;;;;;;20.37;31.52;102295.13;5301158;28;20060;-76
2022/05/01 11:17:42;;;;;;;7.90;5.30;;;;;;;19.64;32.18;102287.84;5304624;28;20367;-76
2022/05/01 11:20:19;;;;;;;5.50;5.00;;;;;;;20.33;32.70;102282.94;5304368;28;20032;-76
2022/05/01 11:22:51;;;;;;;7.90;5.25;;;;;;;20.11;32.66;102281.81;5304311;28;20036;-76
2022/05/01 11:25:30;;;;;;;5.47;4.97;;;;;;;21.08;30.88;102280.88;5305054;28;20025;-76
2022/05/01 11:28:02;;;;;;;6.53;5.28;;;;;;;22.78;29.28;102276.06;5304412;28;20039;-75
2022/05/01 11:30:36;;;;;;;5.90;5.30;;;;;;;23.99;27.73;102280.13;5304841;28;20025;-76
2022/05/01 11:33:09;;;;;;;6.72;4.90;;;;;;;24.34;27.15;102268.22;5302462;28;20549;-76
2022/05/01 11:36:00;;;;;;;5.97;5.00;;;;;;;25.08;27.44;102274.09;5304833;28;20043;-76
2022/05/01 11:38:37;;;;;;;4.72;4.32;;;;;;;25.25;26.70;102267.22;5304552;28;20024;-76
2022/05/01 11:41:10;;;;;;;6.78;4.50;;;;;;;24.32;27.52;102262.13;5303778;28;20143;-76
2022/05/01 11:43:42;;;;;;;6.07;4.53;;;;;;;23.58;28.09;102257.97;5296028;28;20532;-76
2022/05/01 11:46:17;;;;;;;8.00;5.57;;;;;;;23.78;28.17;102257.28;5302366;28;20032;-76
2022/05/01 11:48:49;;;;;;;7.20;4.63;;;;;;;23.40;28.54;102243.94;5296907;28;20511;-76
2022/05/01 11:51:21;;;;;;;7.30;4.95;;;;;;;23.14;28.73;102245.34;5303241;28;20103;-76
2022/05/01 11:53:52;;;;;;;5.30;4.70;;;;;;;22.59;30.44;102242.13;5297570;28;20147;-76
2022/05/01 12:02:26;;;;;;;6.03;4.82;;;;;;;24.48;28.04;102244.59;5304425;28;20044;-76
2022/05/01 12:04:59;;;;;;;5.55;4.60;;;;;;;25.32;27.24;102245.41;5295267;28;20111;-76